Flight Track Log - Related Links

Times and Time Zones

All times are in EDT time to prevent confusion due to time zone crossing. See the N600AJ flight status page for this flight to view local times or setup timezone preferences in your user account.

Time Position Orientation Groundspeed Altitude Reporting Facility
EDT Latitude Longitude Course Direction KTS MPH feet Rate Location/Type
Wed 10:23:15 PM 40.8546 -74.0926 344° North  Level FlightAware Approximate
Wed 10:24:24 PM 40.9167 -74.1167 303° West 238 274 4,600  Level New York TRACON
Wed 10:26:52 PM 41.0244 -74.3383 316° Northwest 311 358 16,000 4,644 Climbing New York Center
Wed 10:27:52 PM 41.0986 -74.4331 308° West 349 402 20,700 3,025 Climbing New York Center
Wed 10:28:51 PM 41.1697 -74.5553 307° West 376 433 22,000 645 Climbing New York Center
Wed 10:29:53 PM 41.2444 -74.6892 307° West 421 484 22,000  Level New York Center
Wed 10:30:53 PM 41.3153 -74.8122 308° West 426 490 22,000  Level New York Center
Wed 10:31:51 PM 41.3919 -74.9411 307° West 432 497 22,000  Level New York Center
Wed 10:32:52 PM 41.4625 -75.0675 306° West 432 497 22,000  Level New York Center
Wed 10:33:53 PM 41.5308 -75.1936 308° West 427 491 22,000  Level New York Center
Wed 10:34:52 PM 41.6031 -75.3178 307° West 427 491 22,000  Level New York Center
Wed 10:35:53 PM 41.6753 -75.4447 307° West 427 491 22,000  Level New York Center
Wed 10:36:54 PM 41.7472 -75.5722 307° West 427 491 22,000  Level New York Center
Wed 10:37:54 PM 41.8189 -75.7000 306° West 427 491 22,000  Level New York Center
Wed 10:38:52 PM 41.8961 -75.8450 307° West 432 497 22,000  Level New York Center
Wed 10:39:52 PM 41.9675 -75.9731 308° West 432 497 22,000  Level New York Center
Wed 10:40:52 PM 42.0411 -76.1017 305° West 432 497 22,000  Level New York Center
Wed 10:41:53 PM 42.1100 -76.2331 307° West 432 497 22,000  Level New York Center
Wed 10:42:53 PM 42.1811 -76.3622 306° West 432 497 22,000  Level New York Center
Wed 10:43:51 PM 42.2500 -76.4911 307° West 427 491 22,000 -511 Level New York Center
Wed 10:45:14 PM 42.3478 -76.6692 306° West 427 491 20,800 -1,594 Descending Cleveland Center
Wed 10:46:14 PM 42.4125 -76.7892 307° West 411 473 18,200 -2,550 Descending Cleveland Center
Wed 10:47:14 PM 42.4789 -76.9089 306° West 405 466 15,700 -2,471 Descending Cleveland Center
Wed 10:47:56 PM 42.5208 -76.9883 318° Northwest 380 437 14,000 -2,400 Descending Cleveland Center
Wed 10:49:09 PM 42.6075 -77.0933 320° Northwest 353 406 11,100 -1,388 Descending Cleveland Center
Wed 10:50:10 PM 42.6789 -77.1742 296° West 327 376 10,900 -496 Descending Cleveland Center
Wed 10:51:10 PM 42.7150 -77.2739 281° West 288 331 10,100 -1,043 Descending Cleveland Center
Wed 10:52:05 PM 42.7281 -77.3694 284° West 278 320 8,900 -1,670 Descending Cleveland Center
Wed 10:53:05 PM 42.7456 -77.4675 278° West 269 310 6,900 -1,860 Descending Cleveland Center
Wed 10:54:14 PM 42.7567 -77.5744 291° West 275 316 4,900 -1,426 Descending Cleveland Center
Wed 10:55:07 PM 42.7797 -77.6581 300° West 227 261 4,000 -500 Descending Cleveland Center
Wed 10:56:14 PM 42.8061 -77.7192 324° Northwest 214 246 3,900  Descending Cleveland Center
Wed 10:57:14 PM 42.8447 -77.7569 326° Northwest 183 211 4,000 56 Climbing Cleveland Center
Wed 10:58:02 PM 42.8831 -77.7922 357° North 179 206 4,000 -110 Level Cleveland Center
Wed 10:59:03 PM 42.9331 -77.7956 North 177 204 3,800 -492 Descending Cleveland Center
Wed 11:00:04 PM 42.9808 -77.7906 29° Northeast 177 204 3,000 -893 Descending Cleveland Center
Wed 11:01:04 PM 43.0197 -77.7606 30° Northeast 169 194 2,000 -645 Descending Cleveland Center
Wed 11:02:05 PM 43.0586 -77.7303 30° Northeast 146 168 1,700 -295 Descending Cleveland Center

Login

Don't have an account? Register now (free) for customized features, flight alerts, and more!